sensor_id;sensor_type;location;lat;lon;timestamp;P1;durP1;ratioP1;P2;durP2;ratioP2
67712;SDS011;54503;55.784;49.138;2023-01-24T00:04:23;29.10;;;9.43;;
67712;SDS011;54503;55.784;49.138;2023-01-24T00:09:42;32.30;;;11.30;;
67712;SDS011;54503;55.784;49.138;2023-01-24T00:15:03;29.32;;;10.10;;
67712;SDS011;54503;55.784;49.138;2023-01-24T00:20:09;31.40;;;10.10;;
67712;SDS011;54503;55.784;49.138;2023-01-24T00:25:15;29.92;;;9.98;;
67712;SDS011;54503;55.784;49.138;2023-01-24T00:30:20;29.97;;;9.87;;
67712;SDS011;54503;55.784;49.138;2023-01-24T00:35:37;41.73;;;10.03;;
67712;SDS011;54503;55.784;49.138;2023-01-24T00:40:42;37.63;;;11.68;;
67712;SDS011;54503;55.784;49.138;2023-01-24T00:46:01;34.45;;;11.15;;
67712;SDS011;54503;55.784;49.138;2023-01-24T00:51:20;44.55;;;11.53;;
67712;SDS011;54503;55.784;49.138;2023-01-24T00:56:39;48.42;;;11.57;;
67712;SDS011;54503;55.784;49.138;2023-01-24T01:01:58;45.37;;;12.50;;
67712;SDS011;54503;55.784;49.138;2023-01-24T01:07:03;42.88;;;12.85;;
67712;SDS011;54503;55.784;49.138;2023-01-24T01:12:08;46.10;;;12.33;;
67712;SDS011;54503;55.784;49.138;2023-01-24T01:17:26;43.43;;;12.47;;
67712;SDS011;54503;55.784;49.138;2023-01-24T01:22:31;41.13;;;11.73;;
67712;SDS011;54503;55.784;49.138;2023-01-24T01:27:36;37.63;;;9.85;;
67712;SDS011;54503;55.784;49.138;2023-01-24T01:32:55;31.53;;;10.33;;
67712;SDS011;54503;55.784;49.138;2023-01-24T01:38:12;24.85;;;9.20;;
67712;SDS011;54503;55.784;49.138;2023-01-24T01:43:18;31.82;;;9.30;;
67712;SDS011;54503;55.784;49.138;2023-01-24T02:05:20;27.48;;;8.40;;
67712;SDS011;54503;55.784;49.138;2023-01-24T02:10:25;23.53;;;7.63;;
67712;SDS011;54503;55.784;49.138;2023-01-24T02:15:31;26.60;;;8.20;;
67712;SDS011;54503;55.784;49.138;2023-01-24T02:20:56;27.15;;;8.98;;
67712;SDS011;54503;55.784;49.138;2023-01-24T02:26:16;25.57;;;8.05;;
67712;SDS011;54503;55.784;49.138;2023-01-24T02:31:23;23.62;;;7.90;;
67712;SDS011;54503;55.784;49.138;2023-01-24T02:36:28;25.83;;;7.53;;
67712;SDS011;54503;55.784;49.138;2023-01-24T02:42:24;21.90;;;7.37;;
67712;SDS011;54503;55.784;49.138;2023-01-24T02:47:13;25.23;;;7.95;;
67712;SDS011;54503;55.784;49.138;2023-01-24T02:52:30;31.77;;;8.08;;
67712;SDS011;54503;55.784;49.138;2023-01-24T02:57:55;45.73;;;9.20;;
67712;SDS011;54503;55.784;49.138;2023-01-24T03:03:20;41.28;;;9.68;;
67712;SDS011;54503;55.784;49.138;2023-01-24T03:08:25;32.53;;;8.80;;
67712;SDS011;54503;55.784;49.138;2023-01-24T03:13:44;59.50;;;10.23;;
67712;SDS011;54503;55.784;49.138;2023-01-24T03:19:09;44.58;;;11.38;;
67712;SDS011;54503;55.784;49.138;2023-01-24T03:24:33;48.28;;;10.90;;
67712;SDS011;54503;55.784;49.138;2023-01-24T03:29:58;43.40;;;8.80;;
67712;SDS011;54503;55.784;49.138;2023-01-24T03:35:23;38.25;;;10.63;;
67712;SDS011;54503;55.784;49.138;2023-01-24T03:40:42;39.83;;;9.87;;
67712;SDS011;54503;55.784;49.138;2023-01-24T03:45:51;51.35;;;10.90;;
67712;SDS011;54503;55.784;49.138;2023-01-24T03:51:17;47.43;;;10.85;;
67712;SDS011;54503;55.784;49.138;2023-01-24T03:56:42;43.73;;;12.10;;
67712;SDS011;54503;55.784;49.138;2023-01-24T04:01:47;56.88;;;13.05;;
67712;SDS011;54503;55.784;49.138;2023-01-24T04:06:52;42.40;;;11.95;;
67712;SDS011;54503;55.784;49.138;2023-01-24T04:11:58;57.87;;;12.10;;
67712;SDS011;54503;55.784;49.138;2023-01-24T04:17:17;57.75;;;13.32;;
67712;SDS011;54503;55.784;49.138;2023-01-24T04:22:36;46.88;;;12.18;;
67712;SDS011;54503;55.784;49.138;2023-01-24T04:27:55;33.33;;;10.60;;
67712;SDS011;54503;55.784;49.138;2023-01-24T04:33:00;47.67;;;10.98;;
67712;SDS011;54503;55.784;49.138;2023-01-24T04:38:05;42.27;;;12.70;;
67712;SDS011;54503;55.784;49.138;2023-01-24T04:43:24;45.73;;;11.87;;
67712;SDS011;54503;55.784;49.138;2023-01-24T04:48:43;48.25;;;12.53;;
67712;SDS011;54503;55.784;49.138;2023-01-24T04:54:02;55.67;;;12.50;;
67712;SDS011;54503;55.784;49.138;2023-01-24T04:59:07;50.45;;;12.33;;
67712;SDS011;54503;55.784;49.138;2023-01-24T05:04:12;47.85;;;10.13;;
67712;SDS011;54503;55.784;49.138;2023-01-24T05:09:18;41.13;;;9.67;;
67712;SDS011;54503;55.784;49.138;2023-01-24T05:14:49;50.70;;;10.32;;
67712;SDS011;54503;55.784;49.138;2023-01-24T05:19:54;44.63;;;11.65;;
67712;SDS011;54503;55.784;49.138;2023-01-24T05:25:14;41.67;;;10.43;;
67712;SDS011;54503;55.784;49.138;2023-01-24T05:30:33;34.73;;;9.93;;
67712;SDS011;54503;55.784;49.138;2023-01-24T05:41:31;40.15;;;10.90;;
67712;SDS011;54503;55.784;49.138;2023-01-24T05:46:36;46.10;;;13.08;;
67712;SDS011;54503;55.784;49.138;2023-01-24T05:51:53;40.33;;;10.85;;
67712;SDS011;54503;55.784;49.138;2023-01-24T05:56:59;43.50;;;11.47;;
67712;SDS011;54503;55.784;49.138;2023-01-24T06:02:18;47.73;;;11.28;;
67712;SDS011;54503;55.784;49.138;2023-01-24T06:07:48;41.40;;;12.00;;
67712;SDS011;54503;55.784;49.138;2023-01-24T06:12:53;41.30;;;10.17;;
67712;SDS011;54503;55.784;49.138;2023-01-24T06:18:16;39.30;;;10.93;;
67712;SDS011;54503;55.784;49.138;2023-01-24T06:23:36;29.75;;;9.10;;
67712;SDS011;54503;55.784;49.138;2023-01-24T06:28:55;34.30;;;10.03;;
67712;SDS011;54503;55.784;49.138;2023-01-24T06:39:49;44.42;;;9.20;;
67712;SDS011;54503;55.784;49.138;2023-01-24T06:44:55;34.67;;;8.47;;
67712;SDS011;54503;55.784;49.138;2023-01-24T06:55:35;30.12;;;8.65;;
67712;SDS011;54503;55.784;49.138;2023-01-24T07:00:39;33.47;;;9.50;;
67712;SDS011;54503;55.784;49.138;2023-01-24T07:05:58;40.48;;;10.18;;
67712;SDS011;54503;55.784;49.138;2023-01-24T07:11:20;34.40;;;9.18;;
67712;SDS011;54503;55.784;49.138;2023-01-24T07:16:39;28.77;;;9.05;;
67712;SDS011;54503;55.784;49.138;2023-01-24T07:21:58;32.88;;;8.45;;
67712;SDS011;54503;55.784;49.138;2023-01-24T07:27:04;24.23;;;8.33;;
67712;SDS011;54503;55.784;49.138;2023-01-24T07:32:09;24.85;;;7.47;;
67712;SDS011;54503;55.784;49.138;2023-01-24T07:37:14;30.15;;;8.45;;
67712;SDS011;54503;55.784;49.138;2023-01-24T07:42:24;26.07;;;7.67;;
67712;SDS011;54503;55.784;49.138;2023-01-24T07:47:43;25.15;;;7.03;;
67712;SDS011;54503;55.784;49.138;2023-01-24T07:53:02;24.40;;;7.70;;
67712;SDS011;54503;55.784;49.138;2023-01-24T07:58:22;27.93;;;7.08;;
67712;SDS011;54503;55.784;49.138;2023-01-24T08:03:27;25.57;;;7.00;;
67712;SDS011;54503;55.784;49.138;2023-01-24T08:08:31;26.30;;;7.72;;
67712;SDS011;54503;55.784;49.138;2023-01-24T08:13:36;24.85;;;6.95;;
67712;SDS011;54503;55.784;49.138;2023-01-24T08:18:44;26.90;;;7.37;;
67712;SDS011;54503;55.784;49.138;2023-01-24T08:24:01;21.13;;;6.87;;
67712;SDS011;54503;55.784;49.138;2023-01-24T08:29:06;26.75;;;8.35;;
67712;SDS011;54503;55.784;49.138;2023-01-24T08:34:25;21.27;;;8.13;;
67712;SDS011;54503;55.784;49.138;2023-01-24T08:39:44;50.12;;;10.00;;
67712;SDS011;54503;55.784;49.138;2023-01-24T08:45:03;29.60;;;8.60;;
67712;SDS011;54503;55.784;49.138;2023-01-24T08:50:22;24.77;;;7.90;;
67712;SDS011;54503;55.784;49.138;2023-01-24T08:55:28;22.27;;;7.22;;
67712;SDS011;54503;55.784;49.138;2023-01-24T09:00:33;23.97;;;7.80;;
67712;SDS011;54503;55.784;49.138;2023-01-24T09:05:38;36.15;;;8.10;;
67712;SDS011;54503;55.784;49.138;2023-01-24T09:16:21;23.05;;;7.15;;
67712;SDS011;54503;55.784;49.138;2023-01-24T09:21:41;23.35;;;6.95;;
67712;SDS011;54503;55.784;49.138;2023-01-24T09:27:00;20.90;;;6.97;;
67712;SDS011;54503;55.784;49.138;2023-01-24T09:32:19;22.30;;;6.33;;
67712;SDS011;54503;55.784;49.138;2023-01-24T09:37:38;21.80;;;7.45;;
67712;SDS011;54503;55.784;49.138;2023-01-24T09:42:45;22.58;;;6.62;;
67712;SDS011;54503;55.784;49.138;2023-01-24T09:48:05;21.87;;;6.50;;
67712;SDS011;54503;55.784;49.138;2023-01-24T09:53:13;23.02;;;6.72;;
67712;SDS011;54503;55.784;49.138;2023-01-24T10:14:58;21.15;;;6.40;;
67712;SDS011;54503;55.784;49.138;2023-01-24T10:31:49;28.57;;;7.97;;
67712;SDS011;54503;55.784;49.138;2023-01-24T10:42:01;25.60;;;7.33;;
67712;SDS011;54503;55.784;49.138;2023-01-24T10:47:28;30.50;;;9.30;;
67712;SDS011;54503;55.784;49.138;2023-01-24T10:52:41;24.17;;;6.90;;
67712;SDS011;54503;55.784;49.138;2023-01-24T11:08:47;25.93;;;7.73;;
67712;SDS011;54503;55.784;49.138;2023-01-24T11:13:54;30.10;;;8.63;;
67712;SDS011;54503;55.784;49.138;2023-01-24T11:19:03;24.45;;;8.78;;
67712;SDS011;54503;55.784;49.138;2023-01-24T11:24:22;25.00;;;7.70;;
67712;SDS011;54503;55.784;49.138;2023-01-24T11:29:42;24.50;;;9.38;;
67712;SDS011;54503;55.784;49.138;2023-01-24T11:57:11;24.12;;;6.92;;
67712;SDS011;54503;55.784;49.138;2023-01-24T12:07:56;17.60;;;5.87;;
67712;SDS011;54503;55.784;49.138;2023-01-24T12:13:16;23.15;;;6.83;;
67712;SDS011;54503;55.784;49.138;2023-01-24T12:18:37;22.47;;;7.13;;
67712;SDS011;54503;55.784;49.138;2023-01-24T13:35:53;21.15;;;6.47;;
67712;SDS011;54503;55.784;49.138;2023-01-24T13:41:13;69.30;;;9.18;;
67712;SDS011;54503;55.784;49.138;2023-01-24T13:57:32;21.87;;;7.03;;
67712;SDS011;54503;55.784;49.138;2023-01-24T14:29:48;20.45;;;6.72;;
67712;SDS011;54503;55.784;49.138;2023-01-24T14:40:27;23.98;;;6.92;;
67712;SDS011;54503;55.784;49.138;2023-01-24T14:45:32;23.40;;;7.30;;
67712;SDS011;54503;55.784;49.138;2023-01-24T14:50:38;26.50;;;7.35;;
67712;SDS011;54503;55.784;49.138;2023-01-24T15:01:36;30.08;;;7.03;;
67712;SDS011;54503;55.784;49.138;2023-01-24T15:17:40;21.50;;;6.55;;
67712;SDS011;54503;55.784;49.138;2023-01-24T15:34:01;22.80;;;6.95;;
67712;SDS011;54503;55.784;49.138;2023-01-24T15:38:51;23.35;;;7.37;;
67712;SDS011;54503;55.784;49.138;2023-01-24T15:49:37;23.32;;;7.67;;
67712;SDS011;54503;55.784;49.138;2023-01-24T16:00:03;20.97;;;7.27;;
67712;SDS011;54503;55.784;49.138;2023-01-24T16:10:28;20.17;;;6.25;;
67712;SDS011;54503;55.784;49.138;2023-01-24T16:15:34;24.40;;;7.22;;
67712;SDS011;54503;55.784;49.138;2023-01-24T16:20:39;26.02;;;8.65;;
67712;SDS011;54503;55.784;49.138;2023-01-24T16:25:58;25.60;;;7.83;;
67712;SDS011;54503;55.784;49.138;2023-01-24T16:31:17;28.77;;;8.83;;
67712;SDS011;54503;55.784;49.138;2023-01-24T16:36:36;35.28;;;9.70;;
67712;SDS011;54503;55.784;49.138;2023-01-24T16:41:42;29.40;;;10.60;;
67712;SDS011;54503;55.784;49.138;2023-01-24T16:47:00;33.63;;;10.13;;
67712;SDS011;54503;55.784;49.138;2023-01-24T16:52:06;33.00;;;10.20;;
67712;SDS011;54503;55.784;49.138;2023-01-24T16:57:20;32.45;;;11.10;;
67712;SDS011;54503;55.784;49.138;2023-01-24T17:02:39;31.17;;;10.60;;
67712;SDS011;54503;55.784;49.138;2023-01-24T17:07:59;42.48;;;11.78;;
67712;SDS011;54503;55.784;49.138;2023-01-24T17:13:18;36.23;;;10.60;;
67712;SDS011;54503;55.784;49.138;2023-01-24T17:18:32;33.28;;;10.72;;
67712;SDS011;54503;55.784;49.138;2023-01-24T17:23:49;37.33;;;11.57;;
67712;SDS011;54503;55.784;49.138;2023-01-24T17:28:54;39.78;;;11.22;;
67712;SDS011;54503;55.784;49.138;2023-01-24T17:34:13;40.40;;;11.97;;
67712;SDS011;54503;55.784;49.138;2023-01-24T17:39:32;32.98;;;11.05;;
67712;SDS011;54503;55.784;49.138;2023-01-24T17:44:51;33.57;;;9.53;;
67712;SDS011;54503;55.784;49.138;2023-01-24T17:50:10;41.95;;;10.32;;
67712;SDS011;54503;55.784;49.138;2023-01-24T17:55:15;40.78;;;11.03;;
67712;SDS011;54503;55.784;49.138;2023-01-24T18:00:20;31.30;;;9.80;;
67712;SDS011;54503;55.784;49.138;2023-01-24T18:05:26;28.57;;;10.40;;
67712;SDS011;54503;55.784;49.138;2023-01-24T18:10:46;29.70;;;9.57;;
67712;SDS011;54503;55.784;49.138;2023-01-24T18:21:30;41.65;;;9.70;;
67712;SDS011;54503;55.784;49.138;2023-01-24T18:26:55;29.48;;;8.45;;
67712;SDS011;54503;55.784;49.138;2023-01-24T18:32:15;30.37;;;9.38;;
67712;SDS011;54503;55.784;49.138;2023-01-24T18:37:34;36.47;;;10.60;;
67712;SDS011;54503;55.784;49.138;2023-01-24T18:42:53;33.23;;;10.60;;
67712;SDS011;54503;55.784;49.138;2023-01-24T18:47:59;34.03;;;9.85;;
67712;SDS011;54503;55.784;49.138;2023-01-24T18:53:04;32.93;;;9.65;;
67712;SDS011;54503;55.784;49.138;2023-01-24T18:58:09;33.90;;;9.43;;
67712;SDS011;54503;55.784;49.138;2023-01-24T19:03:14;29.20;;;8.70;;
67712;SDS011;54503;55.784;49.138;2023-01-24T19:08:34;38.98;;;11.90;;
67712;SDS011;54503;55.784;49.138;2023-01-24T19:13:53;33.98;;;9.80;;
67712;SDS011;54503;55.784;49.138;2023-01-24T19:18:58;30.40;;;10.50;;
67712;SDS011;54503;55.784;49.138;2023-01-24T19:24:40;32.40;;;10.63;;
67712;SDS011;54503;55.784;49.138;2023-01-24T19:29:45;31.82;;;10.55;;
67712;SDS011;54503;55.784;49.138;2023-01-24T19:34:50;38.50;;;10.63;;
67712;SDS011;54503;55.784;49.138;2023-01-24T19:40:14;42.67;;;13.68;;
67712;SDS011;54503;55.784;49.138;2023-01-24T19:45:33;43.57;;;13.83;;
67712;SDS011;54503;55.784;49.138;2023-01-24T19:56:35;35.23;;;11.60;;
67712;SDS011;54503;55.784;49.138;2023-01-24T20:01:54;32.77;;;9.43;;
67712;SDS011;54503;55.784;49.138;2023-01-24T20:07:13;38.28;;;10.10;;
67712;SDS011;54503;55.784;49.138;2023-01-24T20:12:18;40.10;;;11.43;;
67712;SDS011;54503;55.784;49.138;2023-01-24T20:17:24;30.75;;;9.68;;
67712;SDS011;54503;55.784;49.138;2023-01-24T20:22:41;32.60;;;9.75;;
67712;SDS011;54503;55.784;49.138;2023-01-24T20:27:48;28.25;;;9.73;;
67712;SDS011;54503;55.784;49.138;2023-01-24T20:33:07;28.73;;;9.85;;
67712;SDS011;54503;55.784;49.138;2023-01-24T20:38:26;36.20;;;9.73;;
67712;SDS011;54503;55.784;49.138;2023-01-24T20:43:46;35.63;;;10.97;;
67712;SDS011;54503;55.784;49.138;2023-01-24T20:49:05;36.17;;;10.43;;
67712;SDS011;54503;55.784;49.138;2023-01-24T20:54:11;35.40;;;10.38;;
67712;SDS011;54503;55.784;49.138;2023-01-24T20:59:16;38.45;;;11.25;;
67712;SDS011;54503;55.784;49.138;2023-01-24T21:04:22;32.93;;;11.05;;
67712;SDS011;54503;55.784;49.138;2023-01-24T21:09:39;36.33;;;12.15;;
67712;SDS011;54503;55.784;49.138;2023-01-24T21:14:45;38.27;;;12.13;;
67712;SDS011;54503;55.784;49.138;2023-01-24T21:19:50;59.30;;;12.28;;
67712;SDS011;54503;55.784;49.138;2023-01-24T21:25:07;38.15;;;10.68;;
67712;SDS011;54503;55.784;49.138;2023-01-24T21:30:13;31.97;;;10.43;;
67712;SDS011;54503;55.784;49.138;2023-01-24T21:35:18;35.10;;;10.13;;
67712;SDS011;54503;55.784;49.138;2023-01-24T21:40:37;31.42;;;10.08;;
67712;SDS011;54503;55.784;49.138;2023-01-24T21:45:56;34.05;;;10.82;;
67712;SDS011;54503;55.784;49.138;2023-01-24T21:51:23;38.25;;;10.10;;
67712;SDS011;54503;55.784;49.138;2023-01-24T21:56:28;36.20;;;12.03;;
67712;SDS011;54503;55.784;49.138;2023-01-24T22:01:54;31.43;;;11.50;;
67712;SDS011;54503;55.784;49.138;2023-01-24T22:07:14;34.60;;;10.65;;
67712;SDS011;54503;55.784;49.138;2023-01-24T22:12:20;42.00;;;13.77;;
67712;SDS011;54503;55.784;49.138;2023-01-24T22:17:39;39.25;;;14.15;;
67712;SDS011;54503;55.784;49.138;2023-01-24T22:28:23;29.85;;;10.10;;
67712;SDS011;54503;55.784;49.138;2023-01-24T22:33:28;35.25;;;10.68;;
67712;SDS011;54503;55.784;49.138;2023-01-24T22:38:34;28.42;;;9.80;;
67712;SDS011;54503;55.784;49.138;2023-01-24T22:43:53;29.37;;;9.27;;
67712;SDS011;54503;55.784;49.138;2023-01-24T22:49:29;26.00;;;9.13;;
67712;SDS011;54503;55.784;49.138;2023-01-24T22:54:35;24.45;;;7.17;;
67712;SDS011;54503;55.784;49.138;2023-01-24T22:59:40;28.20;;;7.73;;
67712;SDS011;54503;55.784;49.138;2023-01-24T23:04:58;20.73;;;6.70;;
67712;SDS011;54503;55.784;49.138;2023-01-24T23:10:03;26.52;;;7.17;;
67712;SDS011;54503;55.784;49.138;2023-01-24T23:15:22;25.20;;;6.72;;
67712;SDS011;54503;55.784;49.138;2023-01-24T23:20:47;32.30;;;7.35;;
67712;SDS011;54503;55.784;49.138;2023-01-24T23:26:12;34.65;;;8.18;;
67712;SDS011;54503;55.784;49.138;2023-01-24T23:31:31;28.20;;;7.80;;
67712;SDS011;54503;55.784;49.138;2023-01-24T23:36:36;26.35;;;7.45;;
67712;SDS011;54503;55.784;49.138;2023-01-24T23:41:41;24.85;;;7.47;;
67712;SDS011;54503;55.784;49.138;2023-01-24T23:46:46;30.35;;;7.70;;
67712;SDS011;54503;55.784;49.138;2023-01-24T23:52:05;24.72;;;7.00;;
67712;SDS011;54503;55.784;49.138;2023-01-24T23:57:25;25.73;;;7.53;;
